Time;durP1;ratioP1;P1;durP2;ratioP2;P2;SDS_P1;SDS_P2;PMS_P1;PMS_P2;Temp;Humidity;BMP_temperature;BMP_pressure;BME280_temperature;BME280_humidity;BME280_pressure;Samples;Min_cycle;Max_cycle;Signal;HPM_P1;HPM_P2
2022/02/07 03:46:45;;;;;;;0.30;0.28;;;9.10;92.50;;;;;;5066831;24;20067;-81
2022/02/07 03:49:12;;;;;;;0.38;0.30;;;9.10;92.50;;;;;;4746404;30;20043;-81
2022/02/07 03:51:46;;;;;;;0.52;0.32;;;9.00;92.70;;;;;;4745999;30;20036;-82
2022/02/07 03:54:13;;;;;;;0.17;0.17;;;9.00;92.90;;;;;;4746867;30;20032;-82
2022/02/07 03:56:40;;;;;;;0.30;0.20;;;8.90;93.20;;;;;;4746529;30;20044;-82
2022/02/07 03:59:06;;;;;;;2.95;0.30;;;8.90;93.60;;;;;;4728797;30;20104;-82
2022/02/07 04:01:35;;;;;;;1.10;0.30;;;8.80;94.00;;;;;;4714520;30;20044;-80
2022/02/07 04:04:02;;;;;;;0.20;0.20;;;8.80;94.10;;;;;;4751499;30;20039;-81
2022/02/07 04:06:29;;;;;;;;;;;8.80;94.20;;;;;;4732395;30;20268;-82
2022/02/07 04:09:07;;;;;;;0.63;0.20;;;8.70;94.40;;;;;;4747047;30;20110;-81
2022/02/07 04:11:53;;;;;;;0.35;0.25;;;8.70;94.60;;;;;;4733345;30;20082;-81
2022/02/07 04:14:22;;;;;;;0.20;0.20;;;8.60;94.90;;;;;;4733508;30;20055;-81
2022/02/07 04:16:57;;;;;;;2.50;0.15;;;8.50;95.00;;;;;;4733816;30;20044;-81
2022/02/07 04:19:33;;;;;;;0.30;0.20;;;8.50;95.40;;;;;;4747174;30;20032;-81
2022/02/07 04:22:04;;;;;;;0.20;0.20;;;8.40;95.70;;;;;;4744575;30;20039;-81
2022/02/07 04:24:39;;;;;;;0.35;0.28;;;8.40;95.80;;;;;;4744706;30;20082;-81
2022/02/07 04:27:09;;;;;;;0.70;0.30;;;8.40;96.00;;;;;;4746464;30;20090;-81
2022/02/07 04:29:37;;;;;;;0.30;0.30;;;8.40;96.00;;;;;;4760740;30;20340;-82
2022/02/07 04:32:04;;;;;;;0.10;0.10;;;8.40;95.90;;;;;;4731688;30;20043;-82
2022/02/07 04:34:30;;;;;;;0.30;0.30;;;8.40;95.80;;;;;;4746019;30;20209;-82
2022/02/07 04:36:57;;;;;;;0.73;0.35;;;8.30;95.90;;;;;;4746153;30;20040;-82
2022/02/07 04:39:23;;;;;;;0.43;0.20;;;8.30;96.00;;;;;;4746170;30;20051;-82
2022/02/07 04:41:55;;;;;;;2.13;1.10;;;8.30;96.00;;;;;;4746267;30;20132;-81
2022/02/07 04:44:28;;;;;;;0.30;0.30;;;8.20;96.00;;;;;;4746026;30;20033;-81
2022/02/07 04:52:41;;;;;;;0.30;0.30;;;8.20;95.70;;;;;;4747434;30;20036;-80
2022/02/07 04:55:18;;;;;;;0.40;0.30;;;8.10;95.60;;;;;;4731894;30;20036;-81
2022/02/07 04:57:53;;;;;;;0.40;0.30;;;8.10;95.70;;;;;;4732494;30;20032;-80
2022/02/07 05:00:30;;;;;;;0.20;0.20;;;8.10;95.50;;;;;;4750454;30;20032;-81
2022/02/07 05:16:18;;;;;;;0.85;0.30;;;7.90;94.70;;;;;;4729487;30;20372;-81
2022/02/07 05:18:45;;;;;;;0.50;0.50;;;7.90;94.50;;;;;;4726218;30;20040;-81
2022/02/07 05:21:24;;;;;;;1.10;0.40;;;7.80;94.70;;;;;;4730795;30;20120;-80
2022/02/07 05:24:02;;;;;;;0.40;0.40;;;7.80;94.60;;;;;;4730579;30;20355;-80
2022/02/07 05:26:44;;;;;;;0.90;0.32;;;7.70;94.30;;;;;;4730500;30;20044;-81
2022/02/07 05:29:14;;;;;;;0.30;0.30;;;7.70;94.20;;;;;;4716497;30;20039;-81
2022/02/07 05:32:07;;;;;;;0.43;0.30;;;7.70;94.20;;;;;;4691466;30;20077;-80
2022/02/07 05:34:54;;;;;;;0.20;0.20;;;7.60;94.10;;;;;;4684705;30;20042;-81
2022/02/07 05:37:49;;;;;;;0.35;0.28;;;7.70;93.90;;;;;;4620934;31;20039;-80
2022/02/07 05:40:42;;;;;;;0.73;0.17;;;7.70;94.50;;;;;;4670717;30;20045;-81
2022/02/07 05:43:26;;;;;;;3.03;0.35;;;7.60;94.80;;;;;;4663786;30;20148;-81
2022/02/07 05:45:59;;;;;;;0.13;0.13;;;7.50;94.70;;;;;;4642852;30;20055;-81
2022/02/07 05:48:50;;;;;;;1.17;0.10;;;7.50;94.90;;;;;;4621915;31;20297;-81
2022/02/07 05:51:22;;;;;;;6.28;0.22;;;7.40;95.80;;;;;;4617773;30;20282;-81
2022/02/07 05:54:08;;;;;;;;;;;7.20;96.80;;;;;;4646308;30;20047;-82
2022/02/07 05:56:54;;;;;;;1.95;0.95;;;7.00;98.00;;;;;;4640395;30;19959;-84
2022/02/07 05:59:35;;;;;;;2.63;0.38;;;6.70;99.20;;;;;;4651019;30;20247;-81
2022/02/07 06:02:19;;;;;;;0.30;0.20;;;6.50;99.60;;;;;;4630545;31;20075;-81
2022/02/07 06:04:48;;;;;;;1.33;0.52;;;6.30;99.90;;;;;;4646398;30;20263;-81
2022/02/07 06:07:14;;;;;;;0.40;0.30;;;6.00;99.90;;;;;;4642011;30;20086;-81
2022/02/07 06:09:40;;;;;;;0.20;0.20;;;5.80;99.90;;;;;;4643836;30;20178;-81
2022/02/07 06:12:07;;;;;;;1.15;0.30;;;5.70;99.90;;;;;;4643715;30;20059;-81
2022/02/07 06:14:34;;;;;;;1.17;0.50;;;5.60;99.90;;;;;;4671808;30;20053;-81
2022/02/07 06:17:01;;;;;;;1.95;0.20;;;5.50;99.90;;;;;;4708871;30;20033;-81
2022/02/07 06:19:28;;;;;;;1.13;0.28;;;5.30;99.90;;;;;;4694430;30;20127;-82
2022/02/07 06:21:55;;;;;;;0.38;0.30;;;5.20;99.90;;;;;;4680087;30;20254;-82
2022/02/07 06:24:21;;;;;;;;;;;5.10;99.90;;;;;;4674445;30;20380;-82
2022/02/07 06:26:47;;;;;;;0.60;0.20;;;5.00;99.90;;;;;;4680380;30;19911;-82
2022/02/07 06:29:18;;;;;;;0.32;0.20;;;5.00;99.90;;;;;;4681140;30;20337;-82
2022/02/07 06:31:49;;;;;;;0.98;0.20;;;4.90;99.90;;;;;;4705451;30;20090;-82
2022/02/07 06:34:15;;;;;;;0.73;0.30;;;4.90;99.90;;;;;;4722449;30;20044;-82
2022/02/07 06:36:41;;;;;;;1.08;0.50;;;4.90;99.90;;;;;;4729462;30;20047;-82
2022/02/07 06:39:08;;;;;;;3.67;0.40;;;4.90;99.90;;;;;;4745805;30;20039;-82
2022/02/07 06:41:37;;;;;;;0.10;0.10;;;4.90;99.90;;;;;;4746855;30;20048;-81
2022/02/07 06:44:07;;;;;;;0.20;0.20;;;5.00;99.90;;;;;;4743677;30;20044;-81
2022/02/07 06:46:33;;;;;;;0.50;0.40;;;5.00;99.90;;;;;;4730546;30;20067;-81
2022/02/07 06:49:00;;;;;;;0.60;0.57;;;5.00;99.90;;;;;;4711634;30;20039;-81
2022/02/07 06:51:26;;;;;;;0.70;0.30;;;5.10;99.90;;;;;;4757506;30;20023;-82
2022/02/07 06:53:54;;;;;;;1.90;0.57;;;5.10;99.90;;;;;;4724591;30;20033;-81
2022/02/07 06:56:26;;;;;;;0.75;0.50;;;5.20;99.90;;;;;;4727268;30;20318;-81
2022/02/07 06:59:02;;;;;;;2.40;0.60;;;5.20;99.90;;;;;;4722831;30;20045;-81
2022/02/07 07:01:31;;;;;;;1.40;0.55;;;5.20;99.90;;;;;;4695401;30;20071;-81
2022/02/07 07:03:57;;;;;;;0.40;0.30;;;5.20;99.90;;;;;;4686081;30;20145;-82
2022/02/07 07:06:23;;;;;;;3.63;0.43;;;5.20;99.90;;;;;;4707978;30;20291;-82
2022/02/07 07:08:55;;;;;;;1.98;0.60;;;5.30;99.90;;;;;;4681631;30;20052;-81
2022/02/07 07:11:43;;;;;;;2.67;0.60;;;5.30;99.90;;;;;;4693941;30;20047;-81
2022/02/07 07:14:44;;;;;;;1.80;0.80;;;5.40;99.90;;;;;;4646584;30;20083;-82
2022/02/07 07:17:12;;;;;;;5.93;1.20;;;5.40;99.90;;;;;;4653652;30;20097;-82
2022/02/07 07:19:44;;;;;;;3.63;1.00;;;5.40;99.90;;;;;;4631786;31;20035;-83
2022/02/07 07:22:10;;;;;;;1.65;0.77;;;5.50;99.90;;;;;;4638736;30;20036;-83
2022/02/07 07:25:16;;;;;;;1.38;0.60;;;5.50;99.90;;;;;;4640046;30;20055;-83
2022/02/07 07:28:01;;;;;;;3.97;0.80;;;5.60;99.90;;;;;;4652503;30;20027;-83
2022/02/07 07:30:34;;;;;;;2.33;0.60;;;5.50;99.90;;;;;;4666573;30;20041;-83
2022/02/07 07:33:05;;;;;;;4.43;1.00;;;5.60;99.90;;;;;;4683646;30;20064;-83
2022/02/07 07:36:13;;;;;;;3.13;0.60;;;5.60;99.90;;;;;;4673423;30;20145;-82
2022/02/07 07:38:39;;;;;;;3.35;0.88;;;5.60;99.90;;;;;;4720150;30;20043;-83
2022/02/07 07:41:05;;;;;;;3.10;0.57;;;5.60;99.90;;;;;;4714408;30;20389;-82
2022/02/07 07:43:46;;;;;;;2.53;0.85;;;5.60;99.90;;;;;;4743844;30;20415;-82
2022/02/07 07:47:21;;;;;;;6.53;0.82;;;5.60;99.90;;;;;;4739467;30;20109;-83
2022/02/07 07:50:10;;;;;;;3.88;0.95;;;5.60;99.10;;;;;;4752451;30;20046;-82
2022/02/07 07:53:10;;;;;;;3.70;0.68;;;5.60;98.70;;;;;;4712355;30;20105;-82
2022/02/07 08:01:38;;;;;;;4.05;0.85;;;5.70;97.80;;;;;;4696721;30;20423;-82
2022/02/07 08:07:34;;;;;;;1.70;0.70;;;5.90;97.40;;;;;;4680724;30;20387;-81
2022/02/07 08:11:01;;;;;;;1.67;0.70;;;6.10;97.30;;;;;;4680064;30;20057;-83
2022/02/07 08:13:27;;;;;;;4.13;1.20;;;6.10;96.30;;;;;;4673144;30;20465;-83
2022/02/07 08:15:56;;;;;;;3.03;1.27;;;6.30;96.10;;;;;;4676491;30;20022;-82
2022/02/07 08:18:22;;;;;;;5.55;0.93;;;6.50;95.80;;;;;;4649214;30;20349;-83
2022/02/07 08:20:51;;;;;;;2.88;0.70;;;6.60;95.40;;;;;;4682574;30;20114;-83
2022/02/07 08:23:17;;;;;;;4.95;0.63;;;6.70;94.60;;;;;;4673810;30;20046;-82
2022/02/07 08:26:14;;;;;;;3.40;1.10;;;6.70;93.80;;;;;;4671587;30;20043;-82
2022/02/07 08:28:40;;;;;;;1.10;0.60;;;6.70;93.60;;;;;;4629211;30;20042;-84
2022/02/07 08:31:06;;;;;;;8.05;1.10;;;6.60;92.70;;;;;;4689873;30;20082;-83
2022/02/07 08:33:32;;;;;;;1.55;0.57;;;6.70;93.10;;;;;;4692491;30;20057;-82
2022/02/07 08:35:58;;;;;;;1.20;0.68;;;6.60;92.40;;;;;;4701126;30;20071;-82
2022/02/07 08:38:23;;;;;;;1.00;0.60;;;6.60;91.70;;;;;;4716422;30;20106;-82
2022/02/07 08:40:49;;;;;;;1.15;0.40;;;6.70;91.80;;;;;;4681705;30;20026;-83
2022/02/07 08:43:15;;;;;;;4.00;1.05;;;6.60;91.00;;;;;;4701611;30;20123;-82
2022/02/07 08:45:42;;;;;;;2.50;0.90;;;6.60;89.60;;;;;;4748031;30;20059;-83
2022/02/07 08:48:10;;;;;;;2.85;0.85;;;6.60;90.50;;;;;;4723204;30;20056;-83
2022/02/07 08:50:37;;;;;;;2.90;0.75;;;6.60;90.10;;;;;;4737491;30;20115;-83
2022/02/07 08:53:04;;;;;;;1.85;0.70;;;6.70;89.40;;;;;;4751002;30;20087;-83
2022/02/07 08:56:05;;;;;;;4.25;1.13;;;6.70;88.30;;;;;;4750394;30;20028;-84
2022/02/07 08:58:51;;;;;;;2.45;0.70;;;6.80;88.30;;;;;;4751641;30;20090;-83
2022/02/07 09:01:50;;;;;;;5.20;0.80;;;6.90;88.90;;;;;;4748635;30;20039;-82
2022/02/07 09:07:12;;;;;;;5.90;0.90;;;6.80;83.90;;;;;;4741425;30;20332;-82
2022/02/07 09:09:41;;;;;;;3.53;0.95;;;6.80;82.70;;;;;;4729396;30;20071;-81
2022/02/07 09:12:08;;;;;;;2.50;0.80;;;6.80;79.70;;;;;;4735467;30;20048;-82
2022/02/07 09:14:42;;;;;;;2.53;0.70;;;6.70;77.50;;;;;;4729388;30;20187;-82
2022/02/07 09:17:08;;;;;;;3.95;0.93;;;6.70;78.80;;;;;;4745830;30;20479;-82
2022/02/07 09:19:36;;;;;;;5.22;0.93;;;6.80;78.40;;;;;;4729955;30;20127;-82
2022/02/07 09:22:04;;;;;;;5.75;0.77;;;6.90;78.80;;;;;;4729859;30;20033;-82
2022/02/07 09:24:30;;;;;;;3.08;0.65;;;7.00;78.30;;;;;;4715528;30;20169;-82
2022/02/07 09:26:56;;;;;;;4.13;0.50;;;7.00;77.70;;;;;;4728875;30;20049;-82
2022/02/07 09:29:22;;;;;;;6.40;1.23;;;7.10;75.00;;;;;;4722920;30;20055;-82
2022/02/07 09:31:48;;;;;;;5.30;1.20;;;7.10;75.60;;;;;;4726061;30;20048;-82
2022/02/07 09:34:14;;;;;;;2.88;0.80;;;7.10;75.00;;;;;;4728597;30;20260;-82
2022/02/07 09:36:40;;;;;;;5.85;1.52;;;7.30;75.80;;;;;;4715517;30;20146;-82
2022/02/07 09:39:11;;;;;;;5.65;1.38;;;7.50;74.80;;;;;;4716564;30;20108;-84
2022/02/07 09:42:18;;;;;;;5.65;1.50;;;7.50;73.00;;;;;;4728316;30;20049;-82
2022/02/07 09:44:50;;;;;;;7.65;0.80;;;7.70;72.20;;;;;;4727774;30;20329;-81
2022/02/07 09:47:16;;;;;;;4.72;1.00;;;7.80;73.20;;;;;;4714567;30;20047;-82
2022/02/07 09:49:44;;;;;;;4.17;1.37;;;7.90;72.00;;;;;;4718258;30;20132;-82
2022/02/07 09:52:28;;;;;;;5.78;1.13;;;7.90;71.10;;;;;;4719995;30;20348;-82
2022/02/07 09:55:15;;;;;;;5.90;1.13;;;7.80;70.90;;;;;;4714626;30;20049;-82
2022/02/07 09:57:59;;;;;;;4.35;0.65;;;7.90;71.10;;;;;;4682680;30;20067;-82
2022/02/07 10:00:49;;;;;;;9.35;1.38;;;7.80;70.30;;;;;;4670638;30;20054;-82
2022/02/07 10:03:46;;;;;;;1.55;0.63;;;7.70;69.30;;;;;;4677581;30;20142;-82
2022/02/07 10:06:29;;;;;;;3.65;0.90;;;7.80;69.30;;;;;;4665939;30;20353;-82
2022/02/07 10:12:31;;;;;;;2.70;0.63;;;7.70;66.80;;;;;;4645477;30;20435;-82
2022/02/07 10:15:24;;;;;;;5.45;1.00;;;7.60;69.80;;;;;;4634817;31;20059;-82
2022/02/07 10:18:07;;;;;;;6.60;0.50;;;7.50;69.00;;;;;;4613504;31;20071;-83
2022/02/07 10:38:57;;;;;;;7.50;0.95;;;7.80;69.30;;;;;;4662748;30;20062;-82
2022/02/07 10:44:49;;;;;;;4.72;0.50;;;8.00;70.20;;;;;;4685437;30;20026;-82
2022/02/07 10:47:29;;;;;;;9.60;1.30;;;8.00;70.10;;;;;;4678179;30;20061;-81
2022/02/07 10:50:07;;;;;;;5.45;0.60;;;7.80;69.80;;;;;;4680621;30;20343;-82
2022/02/07 10:52:51;;;;;;;2.63;0.52;;;7.80;70.50;;;;;;4692519;30;20109;-82
2022/02/07 10:55:28;;;;;;;4.97;0.80;;;7.70;68.90;;;;;;4689167;30;20232;-82
2022/02/07 10:57:58;;;;;;;4.40;0.60;;;7.70;69.40;;;;;;4690539;30;20052;-82
2022/02/07 11:00:32;;;;;;;2.58;0.73;;;7.60;69.30;;;;;;4689143;30;20044;-82
2022/02/07 11:03:06;;;;;;;0.60;0.40;;;7.60;69.90;;;;;;4706445;30;20037;-82
2022/02/07 11:05:43;;;;;;;1.75;0.70;;;7.60;70.40;;;;;;4704618;30;20114;-82
2022/02/07 11:14:04;;;;;;;;;;;8.00;70.10;;;;;;4776384;30;20245;-82
2022/02/07 11:16:50;;;;;;;1.73;0.60;;;8.10;69.20;;;;;;4772800;30;19917;-82
2022/02/07 11:25:28;;;;;;;5.50;0.77;;;8.10;69.90;;;;;;4761089;30;20227;-83
2022/02/07 11:28:00;;;;;;;1.27;0.55;;;8.20;68.30;;;;;;4745856;30;20041;-83
2022/02/07 11:30:38;;;;;;;0.60;0.30;;;8.40;68.10;;;;;;4745369;30;20048;-82
2022/02/07 11:33:06;;;;;;;2.28;0.63;;;8.50;66.40;;;;;;4759729;30;20076;-82
2022/02/07 11:35:49;;;;;;;1.05;0.50;;;8.50;68.00;;;;;;4731242;30;20136;-82
2022/02/07 11:38:30;;;;;;;5.05;1.23;;;8.50;67.70;;;;;;4745443;30;20036;-84
2022/02/07 11:41:32;;;;;;;3.08;0.63;;;8.70;68.00;;;;;;4716613;30;20359;-82
2022/02/07 11:44:20;;;;;;;13.82;2.33;;;8.90;67.10;;;;;;4693549;30;20098;-84
2022/02/07 11:46:46;;;;;;;1.42;0.57;;;8.80;66.80;;;;;;4709940;30;20049;-83
2022/02/07 11:49:12;;;;;;;4.03;1.02;;;8.70;67.00;;;;;;4709717;30;20048;-83
2022/02/07 11:51:40;;;;;;;2.63;0.70;;;8.70;66.50;;;;;;4704590;30;20053;-83
2022/02/07 11:54:07;;;;;;;2.95;0.70;;;8.70;66.10;;;;;;4724147;30;20083;-83
2022/02/07 11:56:47;;;;;;;;;;;8.80;66.10;;;;;;4696074;30;20053;-83
2022/02/07 11:59:39;;;;;;;5.60;0.82;;;8.80;65.30;;;;;;4724536;30;19918;-83
2022/02/07 12:02:19;;;;;;;2.25;0.68;;;8.70;65.80;;;;;;4724375;30;20218;-84
2022/02/07 12:04:46;;;;;;;2.08;0.70;;;8.70;65.40;;;;;;4710113;30;20045;-82
2022/02/07 12:07:15;;;;;;;;;;;8.80;65.20;;;;;;4696046;30;20114;-81
2022/02/07 12:10:06;;;;;;;2.85;0.88;;;8.80;65.50;;;;;;4710241;30;19961;-83
2022/02/07 12:12:46;;;;;;;4.15;0.95;;;8.80;65.70;;;;;;4710319;30;20368;-84
2022/02/07 12:15:15;;;;;;;5.07;0.73;;;8.80;65.80;;;;;;4724327;30;20053;-83
2022/02/07 12:17:46;;;;;;;1.27;0.50;;;8.90;64.90;;;;;;4692339;30;20029;-83
2022/02/07 12:20:14;;;;;;;5.32;1.48;;;8.80;65.20;;;;;;4720194;30;20111;-82
2022/02/07 12:23:05;;;;;;;7.05;1.20;;;8.70;65.30;;;;;;4745526;30;20020;-83
2022/02/07 12:25:38;;;;;;;5.15;0.88;;;8.80;64.60;;;;;;4770918;30;20354;-83
2022/02/07 12:28:12;;;;;;;1.85;0.70;;;8.70;64.90;;;;;;4745539;30;20311;-83
2022/02/07 12:30:59;;;;;;;4.00;0.98;;;8.70;64.20;;;;;;4760229;30;20044;-83
2022/02/07 12:33:26;;;;;;;5.13;0.77;;;8.60;64.60;;;;;;4747974;30;20060;-83
2022/02/07 12:35:53;;;;;;;2.83;0.60;;;8.60;65.40;;;;;;4745369;30;20086;-83
2022/02/07 12:38:19;;;;;;;;;;;8.60;65.70;;;;;;4746098;30;20115;-83
2022/02/07 12:40:45;;;;;;;3.45;0.70;;;8.50;66.00;;;;;;4742742;30;19914;-83
2022/02/07 12:43:13;;;;;;;1.67;0.57;;;8.50;68.10;;;;;;4738441;30;20066;-83
2022/02/07 12:45:41;;;;;;;2.40;0.60;;;8.30;70.10;;;;;;4739351;30;20059;-83
2022/02/07 12:48:13;;;;;;;4.07;0.80;;;8.30;72.60;;;;;;4752322;30;20255;-82
2022/02/07 12:50:40;;;;;;;3.50;0.95;;;8.30;72.00;;;;;;4744510;30;20107;-83
2022/02/07 12:53:06;;;;;;;1.98;0.75;;;8.20;71.80;;;;;;4745130;30;20100;-83
2022/02/07 12:55:34;;;;;;;1.33;0.47;;;8.20;72.00;;;;;;4758567;30;20053;-83
2022/02/07 12:57:59;;;;;;;4.18;0.73;;;8.30;72.30;;;;;;4726330;30;20036;-82
2022/02/07 13:00:25;;;;;;;3.80;0.82;;;8.30;72.30;;;;;;4743548;30;20093;-83
2022/02/07 13:02:52;;;;;;;5.75;0.90;;;8.20;72.90;;;;;;4726826;30;20056;-83
2022/02/07 13:05:19;;;;;;;2.38;0.50;;;8.20;73.90;;;;;;4744130;30;20044;-83
2022/02/07 13:07:49;;;;;;;3.65;0.73;;;8.10;73.80;;;;;;4729796;30;20044;-82
2022/02/07 13:10:22;;;;;;;2.70;0.70;;;8.10;74.30;;;;;;4758037;30;20059;-82
2022/02/07 13:12:55;;;;;;;2.92;0.70;;;8.10;74.90;;;;;;4749552;30;20036;-82
2022/02/07 13:15:23;;;;;;;4.45;0.98;;;8.00;74.70;;;;;;4740382;30;20040;-82
2022/02/07 13:17:56;;;;;;;3.17;0.80;;;8.10;74.80;;;;;;4741209;30;20056;-84
2022/02/07 13:20:24;;;;;;;2.20;0.70;;;8.20;74.80;;;;;;4757751;30;20103;-83
2022/02/07 13:23:10;;;;;;;2.25;0.80;;;8.40;73.40;;;;;;4743526;30;20107;-83
2022/02/07 13:25:45;;;;;;;4.45;0.80;;;8.50;71.30;;;;;;4747047;30;20086;-84
2022/02/07 13:28:20;;;;;;;2.83;0.70;;;8.40;69.50;;;;;;4747032;30;20366;-82
2022/02/07 13:30:48;;;;;;;3.08;0.93;;;8.40;69.10;;;;;;4759452;30;20111;-83
2022/02/07 13:33:14;;;;;;;4.68;0.70;;;8.40;69.10;;;;;;4746981;30;20052;-83
2022/02/07 13:35:45;;;;;;;3.88;0.90;;;8.50;69.10;;;;;;4744158;30;20076;-83
2022/02/07 13:38:13;;;;;;;3.95;1.02;;;8.40;69.10;;;;;;4759094;30;20276;-83
2022/02/07 13:40:42;;;;;;;4.72;0.95;;;8.40;69.10;;;;;;4744473;30;20036;-83
2022/02/07 13:43:29;;;;;;;4.75;1.13;;;8.30;69.40;;;;;;4745351;30;20032;-84
2022/02/07 13:46:03;;;;;;;0.95;0.40;;;8.20;68.80;;;;;;4746235;30;20055;-83
2022/02/07 13:48:49;;;;;;;6.75;1.13;;;8.30;69.40;;;;;;4756102;30;20237;-83
2022/02/07 13:51:15;;;;;;;3.63;1.48;;;8.30;68.00;;;;;;4731831;30;20052;-84
2022/02/07 13:54:02;;;;;;;;;;;;;;;;;;;;;
2022/02/07 13:57:00;;;;;;;5.00;1.00;;;8.20;68.20;;;;;;4760726;30;20390;-83
2022/02/07 13:59:35;;;;;;;3.63;0.70;;;8.20;67.60;;;;;;4731601;30;20080;-82
2022/02/07 14:02:30;;;;;;;2.13;0.93;;;8.30;67.20;;;;;;4731028;30;20085;-82
2022/02/07 14:05:06;;;;;;;3.70;1.30;;;8.30;68.00;;;;;;4734944;30;20075;-82
2022/02/07 14:07:47;;;;;;;3.03;0.88;;;8.30;68.30;;;;;;4731195;30;20375;-83
2022/02/07 14:10:40;;;;;;;1.98;0.85;;;8.30;66.90;;;;;;4743780;30;20115;-83
2022/02/07 14:13:42;;;;;;;6.37;0.90;;;8.20;66.40;;;;;;4754765;30;20040;-83
2022/02/07 14:16:09;;;;;;;3.90;0.60;;;8.20;66.20;;;;;;4742540;30;20214;-82
2022/02/07 14:19:03;;;;;;;6.95;1.20;;;8.30;67.10;;;;;;4728888;30;20113;-83
2022/02/07 14:21:42;;;;;;;6.80;1.27;;;8.30;66.70;;;;;;4754791;30;20044;-83
2022/02/07 14:24:08;;;;;;;3.05;0.90;;;8.40;66.10;;;;;;4745667;30;20313;-83
2022/02/07 14:26:37;;;;;;;2.13;0.65;;;8.40;66.40;;;;;;4744648;30;20049;-83
2022/02/07 14:29:04;;;;;;;5.07;0.90;;;8.30;66.00;;;;;;4744240;30;20060;-83
2022/02/07 14:31:30;;;;;;;3.35;0.80;;;8.30;66.30;;;;;;4757254;30;20236;-83
2022/02/07 14:33:56;;;;;;;3.72;0.90;;;8.30;66.40;;;;;;4731538;30;20067;-83
2022/02/07 14:36:23;;;;;;;4.40;1.00;;;8.20;66.20;;;;;;4744600;30;20082;-82
2022/02/07 14:38:49;;;;;;;3.10;0.82;;;8.10;66.80;;;;;;4737731;30;20386;-81
2022/02/07 14:41:18;;;;;;;4.90;1.45;;;8.10;67.10;;;;;;4740630;30;20040;-83
2022/02/07 14:43:48;;;;;;;4.00;1.35;;;8.10;67.60;;;;;;4732158;30;20039;-84
2022/02/07 14:46:22;;;;;;;3.80;1.13;;;8.00;68.30;;;;;;4730593;30;20124;-82
2022/02/07 14:48:48;;;;;;;1.17;0.80;;;8.00;68.60;;;;;;4747509;30;20059;-84
2022/02/07 14:51:14;;;;;;;2.40;0.90;;;8.00;69.00;;;;;;4760975;30;20036;-83
2022/02/07 14:53:41;;;;;;;2.53;0.88;;;7.90;68.60;;;;;;4742415;30;20056;-83
2022/02/07 14:56:08;;;;;;;5.55;1.48;;;7.90;69.10;;;;;;4732940;30;20036;-83
2022/02/07 14:58:34;;;;;;;11.30;1.25;;;7.90;69.50;;;;;;4746597;30;20500;-83
2022/02/07 15:01:01;;;;;;;5.15;0.93;;;7.90;69.60;;;;;;4746599;30;20036;-83
2022/02/07 15:03:27;;;;;;;7.28;1.10;;;7.80;69.90;;;;;;4746321;30;20228;-83
2022/02/07 15:05:57;;;;;;;4.38;0.85;;;7.80;69.80;;;;;;4732177;30;20040;-84
2022/02/07 15:08:25;;;;;;;5.55;1.58;;;7.70;69.90;;;;;;4720563;30;20052;-83
2022/02/07 15:11:33;;;;;;;7.18;1.42;;;7.70;70.60;;;;;;4732010;30;20366;-83
2022/02/07 15:14:16;;;;;;;7.50;1.38;;;7.70;70.30;;;;;;4725557;30;20256;-83
2022/02/07 15:16:43;;;;;;;4.72;0.95;;;7.70;70.60;;;;;;4726039;30;20040;-83
2022/02/07 15:19:35;;;;;;;9.63;1.47;;;7.70;70.90;;;;;;4727185;30;20280;-84
2022/02/07 15:22:52;;;;;;;6.25;1.10;;;7.70;70.70;;;;;;4658014;30;20621;-83
2022/02/07 15:30:18;;;;;;;3.30;1.35;;;7.60;70.80;;;;;;4557684;31;20052;-84
2022/02/07 15:32:56;;;;;;;4.50;1.13;;;7.50;70.80;;;;;;4554442;31;20045;-83
2022/02/07 15:35:36;;;;;;;4.63;1.15;;;7.50;70.90;;;;;;4540531;31;20050;-83
2022/02/07 15:38:36;;;;;;;10.18;1.42;;;7.50;70.90;;;;;;4528361;31;20221;-83
2022/02/07 15:41:09;;;;;;;4.28;1.42;;;7.40;71.10;;;;;;4540381;31;20125;-83
2022/02/07 15:43:43;;;;;;;5.68;1.20;;;7.40;71.20;;;;;;4540058;31;20129;-83
2022/02/07 15:52:42;;;;;;;5.72;1.80;;;7.30;71.70;;;;;;4777521;30;20264;-83
2022/02/07 15:55:12;;;;;;;3.55;1.35;;;7.30;72.00;;;;;;4763784;30;20106;-83
2022/02/07 15:57:38;;;;;;;4.68;1.02;;;7.30;72.20;;;;;;4752431;30;20038;-84
2022/02/07 16:00:08;;;;;;;7.43;1.52;;;7.30;72.00;;;;;;4749199;30;20106;-83
2022/02/07 16:03:03;;;;;;;5.25;1.27;;;7.20;72.40;;;;;;4749977;30;20040;-84
2022/02/07 16:05:29;;;;;;;5.85;2.63;;;7.20;72.60;;;;;;4770559;30;20085;-82
2022/02/07 16:07:58;;;;;;;11.35;1.65;;;7.20;72.80;;;;;;4782538;30;20036;-82
2022/02/07 16:10:28;;;;;;;2.70;1.08;;;7.10;72.90;;;;;;4765262;30;20063;-83
2022/02/07 16:16:06;;;;;;;4.95;1.58;;;7.10;74.80;;;;;;4728082;30;20065;-82
2022/02/07 16:18:32;;;;;;;3.90;0.90;;;7.00;77.10;;;;;;4725756;30;20064;-82
2022/02/07 16:20:58;;;;;;;5.10;1.23;;;6.90;77.90;;;;;;4697830;30;20045;-83
2022/02/07 16:23:24;;;;;;;3.95;0.73;;;6.90;79.10;;;;;;4709384;30;20085;-82
2022/02/07 16:25:50;;;;;;;3.38;1.05;;;6.90;80.00;;;;;;4694625;30;20049;-82
2022/02/07 16:28:17;;;;;;;2.80;0.98;;;6.90;80.30;;;;;;4713812;30;20320;-82
2022/02/07 16:30:47;;;;;;;3.77;1.13;;;6.90;80.20;;;;;;4704079;30;20045;-84
2022/02/07 16:33:15;;;;;;;5.07;0.85;;;6.90;80.50;;;;;;4723658;30;20057;-82
2022/02/07 16:35:42;;;;;;;8.75;1.30;;;6.90;80.80;;;;;;4696167;30;20076;-82
2022/02/07 16:38:08;;;;;;;6.05;0.98;;;6.80;80.70;;;;;;4710388;30;20281;-83
2022/02/07 16:40:35;;;;;;;3.60;1.20;;;6.80;81.10;;;;;;4690137;30;20050;-83
2022/02/07 16:43:03;;;;;;;5.65;1.70;;;6.80;81.50;;;;;;4687574;30;20157;-83
2022/02/07 16:48:12;;;;;;;2.75;1.30;;;6.70;81.70;;;;;;4710211;30;20068;-83
2022/02/07 16:50:37;;;;;;;;;;;6.70;81.60;;;;;;4700303;30;20072;-84
2022/02/07 16:53:03;;;;;;;2.17;1.00;;;6.80;81.70;;;;;;4741655;30;19918;-84
2022/02/07 16:55:29;;;;;;;2.45;1.13;;;6.80;81.20;;;;;;4749503;30;20036;-83
2022/02/07 16:57:55;;;;;;;8.82;2.58;;;6.90;81.00;;;;;;4733470;30;20028;-82
2022/02/07 17:00:21;;;;;;;3.40;1.00;;;6.90;80.80;;;;;;4773639;30;20031;-82
2022/02/07 17:02:47;;;;;;;7.65;1.35;;;6.90;80.50;;;;;;4748856;30;20165;-82
2022/02/07 17:05:17;;;;;;;2.28;0.93;;;6.90;80.50;;;;;;4777226;30;20027;-82
2022/02/07 17:07:46;;;;;;;5.18;1.48;;;6.90;80.90;;;;;;4778206;30;20055;-82
2022/02/07 17:10:22;;;;;;;3.58;1.02;;;7.00;80.60;;;;;;4776682;30;20225;-82
2022/02/07 17:12:50;;;;;;;9.07;1.17;;;6.90;80.70;;;;;;4745172;30;20260;-82
2022/02/07 17:15:16;;;;;;;4.95;1.20;;;6.90;81.40;;;;;;4768550;30;20336;-82
2022/02/07 17:17:44;;;;;;;7.65;0.98;;;6.90;82.70;;;;;;4769179;30;20111;-83
2022/02/07 17:20:11;;;;;;;6.20;1.42;;;6.90;83.10;;;;;;4773804;30;20039;-82
2022/02/07 17:22:37;;;;;;;3.90;1.02;;;6.90;83.10;;;;;;4741700;30;20095;-82
2022/02/07 17:25:08;;;;;;;4.93;1.23;;;6.90;83.70;;;;;;4780499;30;20035;-82
2022/02/07 17:27:34;;;;;;;6.28;1.27;;;6.90;84.30;;;;;;4774716;30;20085;-81
2022/02/07 17:30:02;;;;;;;3.22;1.05;;;6.80;85.90;;;;;;4747663;30;20095;-82
2022/02/07 17:32:27;;;;;;;4.80;1.52;;;6.70;87.80;;;;;;4774552;30;20158;-82
2022/02/07 17:34:55;;;;;;;7.75;1.13;;;6.60;89.30;;;;;;4750360;30;20071;-82
2022/02/07 17:37:22;;;;;;;4.80;1.30;;;6.50;89.50;;;;;;4773944;30;20404;-82
2022/02/07 17:39:48;;;;;;;10.82;1.65;;;6.40;89.50;;;;;;4764767;30;20071;-82
2022/02/07 17:42:14;;;;;;;6.88;2.05;;;6.40;89.50;;;;;;4734430;30;20064;-82
2022/02/07 17:44:41;;;;;;;4.47;1.20;;;6.30;89.20;;;;;;4759008;30;20046;-82
2022/02/07 17:47:10;;;;;;;7.75;1.65;;;6.30;89.30;;;;;;4750234;30;20066;-83
2022/02/07 17:49:37;;;;;;;5.25;1.20;;;6.20;89.30;;;;;;4786710;30;20339;-82
2022/02/07 17:52:04;;;;;;;4.38;1.20;;;6.30;89.00;;;;;;4772318;29;20269;-83
2022/02/07 17:54:32;;;;;;;;;;;6.30;88.90;;;;;;4783778;30;20327;-82
2022/02/07 17:57:02;;;;;;;6.22;2.33;;;6.20;89.60;;;;;;4784672;30;19937;-82
2022/02/07 17:59:28;;;;;;;8.98;2.15;;;6.20;90.00;;;;;;4786044;30;20039;-82
2022/02/07 18:01:55;;;;;;;5.33;1.63;;;6.20;90.10;;;;;;4764671;30;20039;-82
2022/02/07 18:04:24;;;;;;;5.07;1.63;;;6.20;89.60;;;;;;4760742;30;20039;-82
2022/02/07 18:07:06;;;;;;;8.20;1.85;;;6.20;89.90;;;;;;4783784;30;20062;-82
2022/02/07 18:09:45;;;;;;;7.18;1.73;;;6.20;89.60;;;;;;4786196;30;20031;-83
2022/02/07 18:12:20;;;;;;;11.88;1.83;;;6.20;89.20;;;;;;4758663;30;20036;-83
2022/02/07 18:15:31;;;;;;;7.07;2.30;;;6.20;89.20;;;;;;4785016;30;20067;-83
2022/02/07 18:18:41;;;;;;;6.95;1.67;;;6.10;88.90;;;;;;4772434;29;20106;-83
2022/02/07 18:21:15;;;;;;;8.32;1.63;;;6.10;88.80;;;;;;4756909;30;20032;-83
2022/02/07 18:23:41;;;;;;;7.60;1.90;;;6.10;88.60;;;;;;4728979;30;20131;-83
2022/02/07 18:26:09;;;;;;;12.63;2.00;;;6.10;88.00;;;;;;4730088;30;20123;-83
2022/02/07 18:29:01;;;;;;;8.82;2.35;;;6.10;87.90;;;;;;4731143;30;20132;-83
2022/02/07 18:32:01;;;;;;;8.65;2.28;;;6.10;87.70;;;;;;4696219;30;20065;-82
2022/02/07 18:34:44;;;;;;;4.65;1.63;;;6.00;87.60;;;;;;4692181;30;20080;-82
2022/02/07 18:38:14;;;;;;;9.82;1.98;;;6.00;87.10;;;;;;4661961;30;20034;-82
2022/02/07 18:44:49;;;;;;;12.10;1.80;;;6.00;86.40;;;;;;4547339;31;20077;-83
2022/02/07 18:47:13;;;;;;;11.25;2.38;;;6.00;86.10;;;;;;4546552;31;20080;-83
2022/02/07 18:49:40;;;;;;;6.97;2.38;;;6.10;85.50;;;;;;4542838;31;20061;-84
2022/02/07 18:52:21;;;;;;;14.25;3.45;;;6.10;85.00;;;;;;4545153;31;20368;-82